Time;durP1;ratioP1;P1;durP2;ratioP2;P2;SDS_P1;SDS_P2;PMS_P1;PMS_P2;Temp;Humidity;BMP_temperature;BMP_pressure;BME280_temperature;BME280_humidity;BME280_pressure;Samples;Min_cycle;Max_cycle;Signal;HPM_P1;HPM_P2
2023/06/15 00:02:06;;;;;;;8.60;4.88;;;22.50;55.30;;;;;;5132446;27;20200;-80
2023/06/15 00:04:33;;;;;;;7.05;5.15;;;22.50;55.30;;;;;;5135250;27;20202;-72
2023/06/15 00:07:02;;;;;;;6.90;4.70;;;22.50;55.30;;;;;;5132417;27;20289;-79
2023/06/15 00:09:29;;;;;;;7.20;4.80;;;22.50;55.30;;;;;;5132306;27;20221;-70
2023/06/15 00:11:55;;;;;;;8.20;4.75;;;22.50;55.30;;;;;;5134422;27;20228;-72
2023/06/15 00:14:22;;;;;;;7.30;4.90;;;22.50;55.30;;;;;;5134985;27;20304;-77
2023/06/15 00:16:52;;;;;;;8.50;5.22;;;22.50;55.30;;;;;;5135031;27;20253;-77
2023/06/15 00:19:19;;;;;;;8.98;5.15;;;22.50;55.30;;;;;;5134997;27;20216;-72
2023/06/15 00:21:48;;;;;;;6.22;5.03;;;22.50;55.30;;;;;;5135188;27;20216;-78
2023/06/15 00:24:16;;;;;;;7.30;5.35;;;22.50;55.30;;;;;;5135015;27;20224;-78
2023/06/15 00:26:43;;;;;;;7.53;5.13;;;22.40;55.20;;;;;;5134703;27;20234;-74
2023/06/15 00:29:11;;;;;;;7.38;4.97;;;22.50;55.90;;;;;;5131740;27;20238;-72
2023/06/15 00:31:38;;;;;;;7.25;4.97;;;22.50;55.30;;;;;;5132366;27;20196;-80
2023/06/15 00:34:04;;;;;;;6.97;5.00;;;22.50;55.30;;;;;;5116645;27;20278;-78
2023/06/15 00:36:31;;;;;;;9.07;5.15;;;22.40;55.20;;;;;;5113854;28;20316;-72
2023/06/15 00:38:58;;;;;;;7.20;5.20;;;22.40;55.20;;;;;;5116647;27;20227;-79
2023/06/15 00:41:27;;;;;;;6.03;4.85;;;22.40;55.20;;;;;;5125737;27;20225;-79
2023/06/15 00:43:54;;;;;;;7.00;4.93;;;22.40;55.20;;;;;;5114081;28;20240;-77
2023/06/15 00:46:21;;;;;;;7.88;5.40;;;22.40;55.20;;;;;;5130150;27;20661;-74
2023/06/15 00:48:48;;;;;;;7.72;5.80;;;22.40;55.20;;;;;;5134532;27;20246;-79
2023/06/15 00:51:15;;;;;;;5.78;4.93;;;22.40;55.20;;;;;;5132682;27;20642;-71
2023/06/15 00:53:44;;;;;;;7.78;5.00;;;22.40;55.20;;;;;;5132355;27;20224;-71
2023/06/15 00:56:13;;;;;;;7.85;5.25;;;22.40;55.20;;;;;;5134279;27;20311;-77
2023/06/15 00:58:41;;;;;;;9.52;5.53;;;22.40;55.20;;;;;;5134081;27;20633;-76
2023/06/15 01:01:08;;;;;;;7.32;5.22;;;22.40;55.20;;;;;;5130691;27;20220;-78
2023/06/15 01:03:35;;;;;;;6.93;5.22;;;22.40;55.20;;;;;;5133870;27;20708;-70
2023/06/15 01:06:13;;;;;;;9.82;5.43;;;22.40;55.20;;;;;;5133919;27;20184;-71
2023/06/15 01:08:41;;;;;;;9.38;5.55;;;22.40;55.20;;;;;;5134084;27;20216;-79
2023/06/15 01:11:09;;;;;;;6.90;5.40;;;22.40;55.20;;;;;;5131217;27;20192;-79
2023/06/15 01:13:38;;;;;;;6.30;4.88;;;22.30;55.10;;;;;;5133830;27;20427;-72
2023/06/15 01:16:11;;;;;;;6.88;5.53;;;22.40;55.20;;;;;;5133825;27;20228;-70
2023/06/15 01:18:46;;;;;;;9.50;5.20;;;22.40;55.20;;;;;;5131023;27;20272;-77
2023/06/15 01:21:14;;;;;;;8.60;5.57;;;22.30;55.10;;;;;;5134026;27;20190;-73
2023/06/15 01:23:50;;;;;;;11.70;5.32;;;22.30;55.10;;;;;;5133212;27;20216;-71
2023/06/15 01:26:20;;;;;;;7.22;5.78;;;22.30;55.10;;;;;;5133415;27;20200;-79
2023/06/15 01:28:49;;;;;;;10.45;5.47;;;22.40;55.10;;;;;;5133259;27;20633;-79
2023/06/15 01:31:18;;;;;;;9.18;5.65;;;22.30;55.10;;;;;;5133803;27;20280;-73
2023/06/15 01:33:46;;;;;;;11.07;5.60;;;22.30;55.10;;;;;;5130634;27;20227;-70
2023/06/15 01:36:13;;;;;;;8.13;5.60;;;22.30;55.10;;;;;;5133106;27;20236;-75
2023/06/15 01:38:41;;;;;;;7.80;5.88;;;22.30;55.10;;;;;;5133135;27;20248;-73
2023/06/15 01:41:09;;;;;;;7.88;5.68;;;22.30;55.10;;;;;;5133835;27;20643;-72
2023/06/15 01:43:40;;;;;;;8.82;6.03;;;22.30;55.70;;;;;;5130092;27;20609;-73
2023/06/15 01:46:08;;;;;;;8.20;5.80;;;22.30;55.10;;;;;;5132831;27;20296;-70
2023/06/15 01:48:35;;;;;;;8.38;5.60;;;22.30;55.10;;;;;;5133134;27;20634;-71
2023/06/15 01:51:03;;;;;;;7.50;5.53;;;22.30;55.10;;;;;;5133345;27;20279;-70
2023/06/15 01:53:31;;;;;;;7.35;5.65;;;22.30;55.10;;;;;;5130058;27;20220;-70
2023/06/15 01:55:59;;;;;;;9.68;5.60;;;22.30;55.10;;;;;;5133277;27;20212;-78
2023/06/15 01:58:27;;;;;;;9.45;5.72;;;22.30;55.10;;;;;;5133241;27;20251;-79
2023/06/15 02:00:55;;;;;;;7.60;5.60;;;22.30;55.00;;;;;;5133508;27;20657;-73
2023/06/15 02:03:22;;;;;;;7.35;5.45;;;22.30;55.00;;;;;;5133401;27;20295;-74
2023/06/15 02:05:49;;;;;;;7.65;5.57;;;22.20;55.00;;;;;;5130362;27;20230;-76
2023/06/15 02:08:16;;;;;;;6.97;5.60;;;22.20;55.00;;;;;;5133040;28;20243;-70
2023/06/15 02:10:43;;;;;;;6.63;5.20;;;22.20;55.00;;;;;;5133484;28;20288;-77
2023/06/15 02:13:12;;;;;;;6.78;5.68;;;22.20;55.00;;;;;;5133259;28;20258;-71
2023/06/15 02:15:39;;;;;;;9.75;5.57;;;22.20;55.00;;;;;;5133001;28;20234;-79
2023/06/15 02:18:12;;;;;;;8.15;5.47;;;22.20;54.90;;;;;;5130095;28;20216;-71
2023/06/15 02:20:41;;;;;;;7.72;5.63;;;22.20;55.00;;;;;;5133447;27;20279;-75
2023/06/15 02:23:07;;;;;;;10.20;5.95;;;22.20;55.00;;;;;;5133453;27;20224;-68
2023/06/15 02:25:34;;;;;;;8.32;5.90;;;22.20;54.90;;;;;;5132943;27;20224;-70
2023/06/15 02:28:02;;;;;;;8.10;5.75;;;22.20;54.90;;;;;;5129670;27;20636;-72
2023/06/15 02:30:29;;;;;;;7.60;5.85;;;22.20;54.90;;;;;;5133253;28;20189;-72
2023/06/15 02:33:00;;;;;;;6.10;5.50;;;22.20;54.90;;;;;;5133304;28;20223;-79
2023/06/15 02:35:28;;;;;;;9.57;5.55;;;22.20;54.90;;;;;;5134418;27;20216;-75
2023/06/15 02:37:56;;;;;;;7.70;5.93;;;22.20;54.90;;;;;;5133786;27;20243;-76
2023/06/15 02:40:23;;;;;;;7.97;6.10;;;22.10;54.80;;;;;;5137006;27;20271;-72
2023/06/15 02:42:50;;;;;;;8.27;6.20;;;22.10;54.80;;;;;;5134152;27;20236;-73
2023/06/15 02:45:17;;;;;;;8.30;6.03;;;22.20;54.90;;;;;;5136478;27;20255;-71
2023/06/15 02:47:44;;;;;;;6.68;5.82;;;22.20;54.90;;;;;;5136295;27;20852;-80
2023/06/15 02:50:11;;;;;;;8.63;6.43;;;22.10;54.80;;;;;;5136292;27;20624;-75
2023/06/15 02:52:41;;;;;;;8.40;6.18;;;22.20;54.90;;;;;;5133867;27;20219;-76
2023/06/15 02:55:09;;;;;;;7.72;6.15;;;22.20;54.90;;;;;;5137048;27;20224;-77
2023/06/15 02:57:36;;;;;;;9.05;6.35;;;22.20;54.90;;;;;;5136599;27;20237;-78
2023/06/15 03:00:05;;;;;;;8.77;6.20;;;22.20;54.90;;;;;;5136135;27;20191;-71
2023/06/15 03:02:32;;;;;;;7.80;5.85;;;22.20;54.90;;;;;;5135963;27;20724;-72
2023/06/15 03:04:59;;;;;;;6.88;6.15;;;22.20;54.90;;;;;;5133465;27;20318;-78
2023/06/15 03:07:26;;;;;;;10.18;6.63;;;22.20;54.90;;;;;;5136218;27;20212;-77
2023/06/15 03:09:55;;;;;;;7.90;5.90;;;22.10;54.70;;;;;;5136257;27;20220;-72
2023/06/15 03:12:22;;;;;;;7.07;6.22;;;22.10;54.70;;;;;;5135988;27;20567;-78
2023/06/15 03:14:51;;;;;;;10.68;6.15;;;22.10;54.70;;;;;;5133292;27;20682;-71
2023/06/15 03:17:18;;;;;;;9.63;6.47;;;22.10;54.70;;;;;;5136350;27;20224;-79
2023/06/15 03:19:47;;;;;;;8.82;5.97;;;22.10;54.80;;;;;;5136314;27;20216;-70
2023/06/15 03:22:14;;;;;;;7.40;5.70;;;22.10;54.70;;;;;;5136342;27;20233;-79
2023/06/15 03:24:43;;;;;;;6.68;5.95;;;22.10;54.80;;;;;;5133264;27;20243;-77
2023/06/15 03:27:13;;;;;;;7.38;5.95;;;22.10;54.70;;;;;;5136006;27;20283;-73
2023/06/15 03:29:40;;;;;;;9.50;6.20;;;22.10;54.70;;;;;;5135969;27;20554;-78
2023/06/15 03:32:08;;;;;;;8.75;6.38;;;22.10;54.70;;;;;;5136285;27;20293;-71
2023/06/15 03:34:36;;;;;;;7.07;6.05;;;22.10;54.70;;;;;;5136186;27;20295;-72
2023/06/15 03:37:05;;;;;;;9.02;6.40;;;22.10;54.70;;;;;;5132941;27;20304;-79
2023/06/15 03:39:32;;;;;;;8.20;5.90;;;22.10;54.70;;;;;;5135617;27;20223;-78
2023/06/15 03:41:59;;;;;;;7.70;6.07;;;22.00;54.60;;;;;;5132954;27;20619;-75
2023/06/15 03:44:28;;;;;;;8.75;5.80;;;22.10;54.70;;;;;;5135399;27;20241;-78
2023/06/15 03:46:55;;;;;;;7.75;6.60;;;22.10;54.70;;;;;;5135329;27;20321;-73
2023/06/15 03:49:22;;;;;;;9.40;6.30;;;22.00;54.60;;;;;;5135340;27;20262;-78
2023/06/15 03:51:49;;;;;;;8.20;6.30;;;22.00;54.60;;;;;;5135417;27;20654;-73
2023/06/15 03:54:16;;;;;;;9.55;5.93;;;22.00;54.60;;;;;;5135707;27;20316;-72
2023/06/15 03:56:44;;;;;;;13.60;7.13;;;22.00;54.60;;;;;;5135045;27;20644;-73
2023/06/15 03:59:11;;;;;;;10.90;7.05;;;22.00;54.60;;;;;;5135150;27;20219;-72
2023/06/15 04:01:39;;;;;;;9.60;6.55;;;22.00;54.60;;;;;;5135284;27;20343;-79
2023/06/15 04:04:06;;;;;;;9.23;6.63;;;22.00;54.60;;;;;;5135357;27;20216;-70
2023/06/15 04:06:35;;;;;;;7.35;6.25;;;22.00;54.60;;;;;;5135539;27;20275;-72
2023/06/15 04:09:03;;;;;;;8.82;6.45;;;22.00;54.60;;;;;;5132449;27;20232;-72
2023/06/15 04:11:30;;;;;;;12.45;6.78;;;22.00;54.60;;;;;;5135227;27;20668;-72
2023/06/15 04:13:57;;;;;;;8.38;7.10;;;22.00;54.60;;;;;;5135182;27;20712;-72
2023/06/15 04:16:24;;;;;;;9.48;6.80;;;22.00;54.60;;;;;;5135249;27;20247;-72
2023/06/15 04:18:52;;;;;;;8.80;6.65;;;22.00;54.60;;;;;;5135086;27;20255;-72
2023/06/15 04:21:19;;;;;;;10.50;7.20;;;22.00;54.60;;;;;;5135018;27;20180;-72
2023/06/15 04:23:46;;;;;;;9.13;6.97;;;22.00;54.60;;;;;;5132266;27;20345;-72
2023/06/15 04:26:14;;;;;;;8.80;7.13;;;22.00;54.60;;;;;;5134688;27;20261;-72
2023/06/15 04:28:45;;;;;;;10.27;6.65;;;22.00;54.60;;;;;;5134905;27;20222;-72
2023/06/15 04:31:14;;;;;;;10.15;6.35;;;22.00;54.60;;;;;;5134711;27;20198;-72
2023/06/15 04:33:42;;;;;;;10.07;7.32;;;22.00;54.60;;;;;;5131420;27;20625;-72
2023/06/15 04:36:12;;;;;;;9.85;6.60;;;21.90;54.50;;;;;;5134709;27;20212;-72
2023/06/15 04:38:40;;;;;;;10.80;7.05;;;22.00;54.60;;;;;;5134692;27;20223;-72
2023/06/15 04:41:08;;;;;;;12.50;7.40;;;22.00;54.60;;;;;;5131896;27;20192;-72
2023/06/15 04:43:36;;;;;;;8.82;6.78;;;21.90;54.50;;;;;;5134914;27;20212;-72
2023/06/15 04:46:03;;;;;;;10.00;7.22;;;21.90;54.50;;;;;;5133673;27;20232;-72
2023/06/15 04:48:32;;;;;;;7.57;6.43;;;21.90;54.50;;;;;;5134172;27;20579;-79
2023/06/15 04:50:59;;;;;;;8.00;7.03;;;21.90;54.50;;;;;;5134457;27;20181;-78
2023/06/15 04:53:27;;;;;;;9.15;6.75;;;21.90;54.50;;;;;;5134507;27;20281;-72
2023/06/15 04:55:54;;;;;;;10.52;6.85;;;21.90;54.50;;;;;;5134448;27;20634;-72
2023/06/15 04:58:21;;;;;;;7.97;6.50;;;21.90;54.50;;;;;;5133513;27;20236;-72
2023/06/15 05:00:48;;;;;;;8.18;6.60;;;21.90;54.50;;;;;;5134064;27;20284;-73
2023/06/15 05:03:15;;;;;;;8.57;6.57;;;21.90;54.50;;;;;;5133962;27;20706;-72
2023/06/15 05:05:42;;;;;;;7.93;6.15;;;21.90;54.50;;;;;;5131180;27;20225;-72
2023/06/15 05:08:09;;;;;;;9.82;7.38;;;21.90;54.50;;;;;;5134256;27;20240;-71
2023/06/15 05:10:38;;;;;;;8.55;6.78;;;21.90;54.50;;;;;;5134171;27;20184;-71
2023/06/15 05:13:05;;;;;;;6.97;6.10;;;21.90;55.20;;;;;;5134092;27;20304;-71
2023/06/15 05:15:32;;;;;;;8.13;6.45;;;21.90;54.50;;;;;;5131098;27;20602;-70
2023/06/15 05:17:59;;;;;;;8.90;6.57;;;21.90;54.50;;;;;;5133741;27;20263;-72
2023/06/15 05:20:26;;;;;;;7.78;6.60;;;21.90;54.50;;;;;;5133846;27;20227;-71
2023/06/15 05:22:53;;;;;;;8.25;6.40;;;21.90;54.50;;;;;;5134053;27;20220;-72
2023/06/15 05:25:20;;;;;;;7.38;6.05;;;21.90;54.50;;;;;;5133495;27;20563;-75
2023/06/15 05:27:49;;;;;;;11.55;7.20;;;22.00;54.60;;;;;;5133826;27;20277;-78
2023/06/15 05:30:16;;;;;;;9.68;6.75;;;21.90;54.50;;;;;;5133069;27;20188;-79
2023/06/15 05:32:43;;;;;;;10.35;6.55;;;21.90;54.40;;;;;;5130696;27;20291;-72
2023/06/15 05:35:10;;;;;;;7.65;6.10;;;21.90;54.40;;;;;;5133115;27;20610;-78
2023/06/15 05:37:38;;;;;;;8.48;6.25;;;21.90;54.40;;;;;;5133506;27;20212;-71
2023/06/15 05:40:06;;;;;;;10.10;6.75;;;21.90;54.40;;;;;;5131773;27;20208;-72
2023/06/15 05:42:33;;;;;;;10.45;5.95;;;21.90;54.40;;;;;;5132673;27;20212;-72
2023/06/15 05:45:01;;;;;;;8.60;6.45;;;21.90;54.40;;;;;;5133074;27;20636;-75
2023/06/15 05:47:28;;;;;;;10.80;7.22;;;21.90;54.40;;;;;;5133623;27;20192;-71
2023/06/15 05:49:56;;;;;;;7.78;5.88;;;21.90;54.40;;;;;;5133282;27;20216;-72
2023/06/15 05:52:23;;;;;;;7.55;5.70;;;21.90;54.40;;;;;;5133225;27;20283;-72
2023/06/15 05:54:50;;;;;;;9.50;5.88;;;21.90;54.40;;;;;;5133604;27;20220;-71
2023/06/15 05:57:17;;;;;;;6.82;5.88;;;21.90;54.40;;;;;;5133425;27;20647;-72
2023/06/15 05:59:46;;;;;;;9.90;6.35;;;21.90;54.40;;;;;;5133320;27;20224;-72
2023/06/15 06:02:15;;;;;;;7.18;5.85;;;21.90;54.40;;;;;;5132795;28;20661;-71
2023/06/15 06:04:42;;;;;;;8.60;6.25;;;21.90;54.40;;;;;;5133347;28;20212;-72
2023/06/15 06:07:10;;;;;;;7.65;5.95;;;22.00;54.40;;;;;;5132978;28;20562;-72
2023/06/15 06:09:37;;;;;;;6.20;5.40;;;21.90;54.30;;;;;;5130631;27;20733;-78
2023/06/15 06:12:06;;;;;;;6.32;5.60;;;21.90;54.30;;;;;;5136454;27;20195;-72
2023/06/15 06:14:33;;;;;;;7.20;5.82;;;21.90;54.30;;;;;;5135965;27;20553;-71
2023/06/15 06:17:01;;;;;;;7.30;6.00;;;22.00;54.40;;;;;;5137134;27;20595;-77
2023/06/15 06:19:31;;;;;;;8.30;5.82;;;21.90;54.40;;;;;;5134675;27;21433;-72
2023/06/15 06:21:58;;;;;;;8.27;5.63;;;22.00;54.40;;;;;;5137498;27;20253;-71
2023/06/15 06:24:25;;;;;;;9.30;5.68;;;22.00;54.40;;;;;;5137252;27;20216;-79
2023/06/15 06:26:53;;;;;;;7.30;5.80;;;22.00;54.40;;;;;;5137417;27;20256;-72
2023/06/15 06:29:20;;;;;;;8.85;5.85;;;22.00;54.40;;;;;;5137117;27;20772;-71
2023/06/15 06:31:48;;;;;;;8.38;6.22;;;22.00;54.40;;;;;;5136995;27;20188;-71
2023/06/15 06:34:15;;;;;;;9.15;5.97;;;22.00;54.40;;;;;;5137220;27;20249;-77
2023/06/15 06:36:44;;;;;;;7.43;5.38;;;22.00;54.40;;;;;;5137235;27;20226;-76
2023/06/15 06:39:12;;;;;;;8.20;5.70;;;22.00;54.40;;;;;;5137392;27;20223;-72
2023/06/15 06:41:39;;;;;;;7.60;5.63;;;22.00;54.40;;;;;;5136817;27;20200;-71
2023/06/15 06:44:08;;;;;;;7.63;5.55;;;22.00;54.40;;;;;;5136854;27;20212;-72
2023/06/15 06:46:36;;;;;;;10.35;5.65;;;22.00;54.40;;;;;;5133264;27;20815;-71
2023/06/15 06:49:03;;;;;;;8.30;5.93;;;22.00;54.40;;;;;;5136433;27;20605;-78
2023/06/15 06:51:30;;;;;;;6.55;5.15;;;22.00;54.40;;;;;;5136786;27;20605;-72
2023/06/15 06:53:59;;;;;;;8.10;5.70;;;22.00;54.50;;;;;;5137037;27;20240;-79
2023/06/15 06:56:27;;;;;;;8.70;5.63;;;22.10;54.50;;;;;;5133355;27;20287;-79
2023/06/15 06:58:54;;;;;;;9.13;5.90;;;22.20;54.50;;;;;;5136639;27;20299;-79
2023/06/15 07:01:21;;;;;;;8.40;5.68;;;22.20;54.40;;;;;;5127762;27;20235;-80
2023/06/15 07:03:48;;;;;;;8.27;5.80;;;22.30;54.40;;;;;;5125767;27;20280;-79
2023/06/15 07:06:15;;;;;;;12.30;5.63;;;22.30;55.00;;;;;;5132071;27;20196;-79
2023/06/15 07:08:43;;;;;;;13.63;6.35;;;22.40;54.40;;;;;;5130129;27;20660;-80
2023/06/15 07:11:12;;;;;;;8.23;5.53;;;22.40;54.40;;;;;;5125967;27;20207;-79
2023/06/15 07:13:39;;;;;;;9.85;5.35;;;22.50;54.40;;;;;;5120297;27;20244;-79
2023/06/15 07:16:06;;;;;;;8.77;5.65;;;22.50;54.30;;;;;;5131253;27;20197;-81
2023/06/15 07:18:33;;;;;;;7.80;5.55;;;22.60;54.40;;;;;;5129794;27;20256;-76
2023/06/15 07:21:01;;;;;;;12.02;5.60;;;22.60;54.10;;;;;;5125428;27;20220;-80
2023/06/15 07:23:30;;;;;;;10.88;5.47;;;22.70;54.20;;;;;;5126356;27;20277;-78
2023/06/15 07:25:57;;;;;;;7.88;5.25;;;22.70;54.10;;;;;;5127119;27;20934;-79
2023/06/15 07:28:26;;;;;;;8.88;5.40;;;22.70;54.00;;;;;;5131002;27;20216;-78
2023/06/15 07:30:53;;;;;;;8.73;5.82;;;22.80;54.00;;;;;;5118155;27;20247;-80
2023/06/15 07:33:21;;;;;;;13.15;6.15;;;22.80;54.00;;;;;;5129524;27;20227;-81
2023/06/15 07:35:49;;;;;;;9.15;5.03;;;22.80;54.00;;;;;;5131233;27;20227;-82
2023/06/15 07:38:16;;;;;;;8.43;5.32;;;22.90;54.00;;;;;;5130667;27;20243;-82
2023/06/15 07:40:43;;;;;;;11.50;5.80;;;22.90;53.90;;;;;;5127695;27;20629;-81
2023/06/15 07:43:11;;;;;;;7.47;5.28;;;22.90;53.80;;;;;;5131504;27;20208;-82
2023/06/15 07:45:41;;;;;;;9.15;5.00;;;22.90;53.70;;;;;;5129946;27;20311;-81
2023/06/15 07:48:08;;;;;;;7.68;4.85;;;23.00;53.80;;;;;;5113831;27;20193;-80
2023/06/15 07:50:35;;;;;;;6.70;5.15;;;22.90;53.70;;;;;;5134228;27;20279;-76
2023/06/15 07:53:02;;;;;;;11.80;5.38;;;23.00;53.80;;;;;;5130921;27;20272;-77
2023/06/15 07:55:30;;;;;;;6.82;4.70;;;23.00;53.80;;;;;;5127877;27;20192;-77
2023/06/15 07:57:57;;;;;;;11.73;5.38;;;23.00;53.70;;;;;;5128998;27;20216;-79
2023/06/15 08:00:24;;;;;;;7.35;5.40;;;23.10;53.80;;;;;;5128540;27;20192;-79
2023/06/15 08:02:54;;;;;;;8.50;5.45;;;23.10;53.70;;;;;;5130132;27;20200;-79
2023/06/15 08:05:21;;;;;;;8.77;4.80;;;23.10;53.60;;;;;;5128423;27;20216;-80
2023/06/15 08:07:49;;;;;;;6.78;4.82;;;23.10;53.50;;;;;;5130834;27;20204;-80
2023/06/15 08:10:17;;;;;;;9.32;4.72;;;23.10;53.50;;;;;;5128873;27;20776;-78
2023/06/15 08:12:44;;;;;;;8.05;4.50;;;23.10;53.50;;;;;;5130488;27;20204;-79
2023/06/15 08:15:11;;;;;;;9.80;5.25;;;23.10;53.50;;;;;;5130059;27;20293;-75
2023/06/15 08:17:38;;;;;;;5.40;4.55;;;23.10;53.50;;;;;;5129252;27;20308;-79
2023/06/15 08:20:09;;;;;;;7.97;5.18;;;23.10;53.50;;;;;;5130468;27;20349;-81
2023/06/15 08:22:36;;;;;;;8.52;5.20;;;23.20;53.60;;;;;;5130889;27;20195;-79
2023/06/15 08:25:05;;;;;;;7.40;4.90;;;23.10;53.50;;;;;;5130129;27;20414;-79
2023/06/15 08:27:32;;;;;;;9.38;5.25;;;23.20;53.60;;;;;;5129376;27;20216;-78
2023/06/15 08:30:00;;;;;;;7.80;5.15;;;23.20;53.50;;;;;;5130112;27;20599;-78
2023/06/15 08:32:27;;;;;;;10.52;5.10;;;23.20;53.50;;;;;;5129291;27;20200;-79
2023/06/15 08:34:55;;;;;;;5.95;4.80;;;23.20;53.50;;;;;;5130308;27;20224;-79
2023/06/15 08:37:25;;;;;;;7.82;5.15;;;23.20;53.60;;;;;;5126954;27;20720;-78
2023/06/15 08:39:54;;;;;;;7.53;5.07;;;23.20;53.50;;;;;;5124941;27;20213;-80
2023/06/15 08:42:23;;;;;;;12.43;5.13;;;23.20;53.50;;;;;;5125394;27;20275;-78
2023/06/15 08:44:53;;;;;;;8.90;4.80;;;23.30;53.60;;;;;;5130113;27;20246;-77
2023/06/15 08:47:22;;;;;;;6.85;4.50;;;23.30;53.70;;;;;;5130364;27;20204;-79
2023/06/15 08:49:50;;;;;;;5.80;4.20;;;23.30;53.60;;;;;;5129804;27;20216;-77
2023/06/15 08:52:20;;;;;;;10.85;4.80;;;23.30;53.70;;;;;;5129612;27;20200;-77
2023/06/15 08:54:53;;;;;;;7.32;4.55;;;23.20;53.50;;;;;;5127728;27;20308;-81
2023/06/15 08:57:23;;;;;;;6.28;4.45;;;23.30;53.60;;;;;;5128925;27;20205;-79
2023/06/15 08:59:50;;;;;;;6.72;4.75;;;23.30;53.60;;;;;;5129585;27;20220;-79
2023/06/15 09:02:22;;;;;;;5.43;4.55;;;23.30;53.60;;;;;;5129908;27;20196;-78
2023/06/15 09:04:50;;;;;;;8.32;4.90;;;23.30;53.60;;;;;;5127423;27;20228;-77
2023/06/15 09:07:18;;;;;;;7.25;4.60;;;23.30;53.50;;;;;;5128124;27;20213;-78
2023/06/15 09:10:17;;;;;;;6.20;4.95;;;23.30;53.50;;;;;;5127939;27;20285;-77
2023/06/15 09:12:50;;;;;;;6.88;4.65;;;23.30;53.60;;;;;;5121297;27;20686;-77
2023/06/15 09:15:24;;;;;;;7.07;4.75;;;23.30;53.60;;;;;;5129863;27;20224;-79
2023/06/15 09:17:56;;;;;;;7.85;5.00;;;23.40;53.70;;;;;;5125029;27;20234;-77
2023/06/15 09:20:25;;;;;;;6.47;4.22;;;23.30;53.60;;;;;;5129619;27;20247;-79
2023/06/15 09:22:57;;;;;;;5.68;4.47;;;23.40;53.60;;;;;;5126735;27;20211;-77
2023/06/15 09:25:26;;;;;;;10.50;4.70;;;23.30;53.50;;;;;;5129204;27;20271;-82
2023/06/15 09:27:55;;;;;;;6.55;4.75;;;23.30;53.40;;;;;;5129277;27;20196;-80
2023/06/15 09:30:23;;;;;;;6.38;4.60;;;23.40;53.50;;;;;;5128644;27;20606;-81
2023/06/15 09:32:50;;;;;;;6.22;4.20;;;23.30;53.50;;;;;;5127672;27;20196;-81
2023/06/15 09:35:17;;;;;;;6.75;4.47;;;23.40;53.50;;;;;;5128545;27;20748;-82
2023/06/15 09:37:44;;;;;;;7.15;4.10;;;23.40;53.50;;;;;;5128842;27;20220;-81
2023/06/15 09:40:12;;;;;;;5.53;4.03;;;23.40;53.40;;;;;;5127459;27;20224;-80
2023/06/15 09:42:50;;;;;;;5.88;4.45;;;23.40;53.40;;;;;;5126455;27;20574;-81
2023/06/15 09:45:18;;;;;;;7.45;4.65;;;23.40;53.40;;;;;;5127604;27;20232;-80
2023/06/15 09:47:45;;;;;;;5.75;4.15;;;23.40;53.40;;;;;;5129013;27;20245;-79
2023/06/15 09:50:12;;;;;;;7.75;4.65;;;23.40;53.40;;;;;;5128681;27;20285;-80
2023/06/15 09:52:44;;;;;;;6.15;4.03;;;23.40;53.30;;;;;;5126609;27;20224;-81
2023/06/15 09:55:13;;;;;;;6.15;4.30;;;23.40;53.50;;;;;;5128291;27;20256;-82
2023/06/15 09:57:43;;;;;;;5.97;4.30;;;23.40;53.40;;;;;;5126924;27;20245;-79
2023/06/15 10:00:12;;;;;;;9.25;4.15;;;23.40;53.40;;;;;;5127614;27;20271;-82
2023/06/15 10:02:40;;;;;;;5.43;4.18;;;23.40;53.30;;;;;;5113444;27;20200;-82
2023/06/15 10:05:13;;;;;;;13.68;4.03;;;23.40;53.30;;;;;;5113121;28;20359;-82
2023/06/15 10:07:44;;;;;;;5.40;3.67;;;23.40;53.40;;;;;;5132778;27;20279;-82
2023/06/15 10:10:11;;;;;;;5.80;3.75;;;23.40;53.40;;;;;;5119091;27;20220;-80
2023/06/15 10:12:43;;;;;;;6.78;4.20;;;23.50;53.50;;;;;;5131417;27;20738;-81
2023/06/15 10:15:18;;;;;;;6.55;4.20;;;23.50;53.30;;;;;;5132133;27;20224;-82
2023/06/15 10:17:48;;;;;;;21.95;4.90;;;23.50;53.40;;;;;;5130390;27;20442;-81
2023/06/15 10:20:17;;;;;;;6.90;4.03;;;23.50;53.50;;;;;;5132697;27;20693;-82
2023/06/15 10:22:50;;;;;;;7.65;3.85;;;23.50;53.50;;;;;;5132529;27;20185;-81
2023/06/15 10:25:18;;;;;;;8.25;4.03;;;23.50;53.60;;;;;;5128945;28;20216;-82
2023/06/15 10:27:45;;;;;;;6.00;3.97;;;23.50;53.50;;;;;;5131858;27;20212;-81
2023/06/15 10:30:22;;;;;;;8.73;3.78;;;23.50;53.50;;;;;;5130350;27;20232;-80
2023/06/15 10:32:55;;;;;;;5.32;3.53;;;23.50;53.50;;;;;;5132089;28;20192;-81
2023/06/15 10:35:28;;;;;;;4.32;3.72;;;23.60;53.60;;;;;;5132039;27;20216;-81
2023/06/15 10:38:07;;;;;;;6.22;3.35;;;23.50;53.50;;;;;;5130344;28;20237;-82
2023/06/15 10:40:41;;;;;;;5.57;3.28;;;23.60;53.50;;;;;;5131619;28;20212;-81
2023/06/15 10:43:08;;;;;;;5.18;3.70;;;23.60;53.60;;;;;;5130868;28;20297;-79
2023/06/15 10:45:37;;;;;;;4.47;3.47;;;23.60;53.50;;;;;;5132062;28;20228;-81
2023/06/15 10:48:05;;;;;;;5.45;3.97;;;23.60;53.50;;;;;;5129794;28;20637;-79
2023/06/15 10:50:40;;;;;;;4.32;3.78;;;23.60;53.50;;;;;;5132050;27;20304;-81
2023/06/15 10:53:24;;;;;;;4.75;3.70;;;23.60;53.50;;;;;;5131929;28;20215;-79
2023/06/15 10:55:55;;;;;;;5.57;3.70;;;23.60;53.50;;;;;;5129337;27;20253;-81
2023/06/15 10:58:24;;;;;;;6.75;3.40;;;23.60;53.50;;;;;;5134149;27;20208;-80
2023/06/15 11:01:09;;;;;;;4.55;3.60;;;23.60;53.50;;;;;;5135681;27;20590;-81
2023/06/15 11:03:36;;;;;;;8.25;3.70;;;23.60;53.50;;;;;;5135496;27;20224;-80
2023/06/15 11:06:06;;;;;;;5.70;3.70;;;23.60;53.50;;;;;;5145277;27;20235;-80
2023/06/15 11:08:44;;;;;;;4.80;3.70;;;23.60;53.40;;;;;;5138636;27;20192;-80
2023/06/15 11:11:12;;;;;;;5.07;3.30;;;23.60;53.40;;;;;;5135176;27;20245;-79
2023/06/15 11:13:59;;;;;;;6.15;3.50;;;23.60;53.40;;;;;;5132825;27;20271;-81
2023/06/15 11:16:30;;;;;;;8.02;3.67;;;23.60;53.40;;;;;;5135865;27;20196;-81
2023/06/15 11:18:59;;;;;;;6.32;3.83;;;23.60;53.40;;;;;;5135451;27;20242;-81
2023/06/15 11:21:28;;;;;;;5.70;3.25;;;23.60;53.40;;;;;;5136054;27;20233;-81
2023/06/15 11:23:57;;;;;;;3.70;3.08;;;23.60;53.40;;;;;;5134832;27;20200;-81
2023/06/15 11:26:29;;;;;;;5.68;3.40;;;23.60;53.40;;;;;;5135548;27;20185;-81
2023/06/15 11:28:59;;;;;;;4.68;3.58;;;23.60;53.40;;;;;;5134740;27;20593;-81
2023/06/15 11:31:29;;;;;;;5.25;3.30;;;23.60;53.40;;;;;;5135329;27;20204;-80
2023/06/15 11:33:57;;;;;;;5.15;3.30;;;23.60;53.30;;;;;;5135210;27;20285;-81
2023/06/15 11:36:25;;;;;;;5.15;3.30;;;23.60;53.40;;;;;;5135382;27;20320;-80
2023/06/15 11:38:53;;;;;;;13.73;3.70;;;23.60;53.40;;;;;;5132798;27;20220;-81
2023/06/15 11:41:21;;;;;;;6.45;3.33;;;23.60;53.40;;;;;;5135088;27;20196;-81
2023/06/15 11:43:49;;;;;;;6.28;3.53;;;23.60;53.30;;;;;;5133337;27;20219;-81
2023/06/15 11:46:17;;;;;;;6.38;3.50;;;23.60;53.40;;;;;;5133799;27;20252;-79
2023/06/15 11:48:47;;;;;;;5.53;3.88;;;23.60;53.40;;;;;;5132407;27;20608;-77
2023/06/15 11:51:15;;;;;;;6.38;3.63;;;23.60;53.30;;;;;;5134295;27;20616;-82
2023/06/15 11:53:42;;;;;;;4.70;3.15;;;23.60;53.30;;;;;;5133874;27;20192;-85
2023/06/15 11:56:12;;;;;;;7.68;3.70;;;23.60;53.30;;;;;;5132740;27;20766;-82
2023/06/15 11:58:40;;;;;;;6.95;4.00;;;23.60;53.40;;;;;;5134800;27;20232;-84
2023/06/15 12:01:07;;;;;;;11.20;3.70;;;23.60;53.50;;;;;;5123173;27;20247;-81
2023/06/15 12:03:39;;;;;;;6.95;3.35;;;23.60;53.50;;;;;;5127863;27;20200;-81
2023/06/15 12:06:08;;;;;;;12.15;3.75;;;23.50;53.50;;;;;;5131268;27;20644;-85
2023/06/15 12:08:35;;;;;;;7.03;3.50;;;23.60;53.50;;;;;;5130931;27;20271;-83
2023/06/15 12:11:03;;;;;;;6.57;3.67;;;23.60;53.60;;;;;;5131231;27;20227;-81
2023/06/15 12:13:30;;;;;;;10.50;4.00;;;23.60;53.70;;;;;;5129351;27;20216;-81
2023/06/15 12:16:00;;;;;;;9.65;4.00;;;23.60;53.70;;;;;;5131140;27;20599;-82
2023/06/15 12:18:27;;;;;;;9.70;3.53;;;23.60;53.60;;;;;;5131089;27;20200;-84
2023/06/15 12:20:55;;;;;;;5.13;4.00;;;23.60;53.50;;;;;;5131157;27;20773;-83
2023/06/15 12:23:30;;;;;;;5.85;3.90;;;23.60;53.50;;;;;;5129547;27;20554;-83
2023/06/15 12:25:58;;;;;;;6.53;4.05;;;23.60;53.50;;;;;;5130993;27;20273;-82
2023/06/15 12:28:26;;;;;;;5.38;3.63;;;23.60;53.50;;;;;;5130895;27;20224;-82
2023/06/15 12:30:59;;;;;;;6.60;3.55;;;23.60;53.50;;;;;;5125369;27;20272;-82
2023/06/15 12:33:28;;;;;;;7.93;3.80;;;23.60;53.50;;;;;;5119190;27;20214;-83
2023/06/15 12:35:56;;;;;;;7.72;3.80;;;23.60;53.50;;;;;;5130833;27;20720;-80
2023/06/15 12:38:26;;;;;;;6.78;3.72;;;23.60;53.50;;;;;;5110055;28;20236;-80
2023/06/15 12:40:56;;;;;;;5.38;3.65;;;23.60;53.60;;;;;;5124069;27;20241;-79
2023/06/15 12:43:25;;;;;;;7.18;3.35;;;23.50;54.10;;;;;;5130792;27;20204;-82
2023/06/15 12:45:53;;;;;;;8.18;3.60;;;23.50;54.20;;;;;;5130097;27;20228;-83
2023/06/15 12:48:20;;;;;;;4.10;3.70;;;23.60;53.60;;;;;;5130483;27;20204;-85
2023/06/15 12:50:48;;;;;;;6.10;3.55;;;23.60;53.60;;;;;;5129840;27;20709;-84
2023/06/15 12:53:15;;;;;;;5.13;3.72;;;23.60;53.70;;;;;;5130792;27;20204;-84